Time;durP1;ratioP1;P1;durP2;ratioP2;P2;SDS_P1;SDS_P2;PMS_P1;PMS_P2;Temp;Humidity;BMP_temperature;BMP_pressure;BME280_temperature;BME280_humidity;BME280_pressure;Samples;Min_cycle;Max_cycle;Signal;HPM_P1;HPM_P2
2021/07/22 00:00:42;;;;;;;19.98;12.65;;;17.30;99.90;;;;;;1993491;72;20987;-70
2021/07/22 00:03:09;;;;;;;18.75;12.95;;;17.30;99.90;;;;;;1976088;72;22128;-70
2021/07/22 00:05:37;;;;;;;18.52;12.35;;;17.30;99.90;;;;;;1971926;72;21065;-70
2021/07/22 00:08:09;;;;;;;16.55;12.78;;;17.30;99.90;;;;;;1987165;72;21030;-69
2021/07/22 00:10:33;;;;;;;17.85;13.05;;;17.30;99.90;;;;;;1965823;72;21101;-70
2021/07/22 00:13:01;;;;;;;17.95;12.82;;;17.20;99.90;;;;;;1973170;72;21588;-70
2021/07/22 00:15:28;;;;;;;18.50;12.35;;;17.20;99.90;;;;;;1980248;72;21006;-70
2021/07/22 00:17:56;;;;;;;19.85;13.98;;;17.10;99.90;;;;;;1965568;72;21078;-70
2021/07/22 00:20:23;;;;;;;17.20;12.70;;;17.20;99.90;;;;;;1993906;72;21503;-70
2021/07/22 00:22:51;;;;;;;17.82;13.65;;;17.10;99.90;;;;;;1979730;72;21193;-70
2021/07/22 00:25:18;;;;;;;18.67;12.93;;;17.20;99.90;;;;;;1977942;72;21174;-69
2021/07/22 00:27:46;;;;;;;20.08;12.90;;;17.20;99.90;;;;;;1967497;70;21067;-70
2021/07/22 00:30:14;;;;;;;23.40;13.78;;;17.20;99.90;;;;;;1989319;72;21517;-69
2021/07/22 00:32:42;;;;;;;19.75;14.20;;;17.20;99.90;;;;;;1945005;73;21125;-69
2021/07/22 00:35:10;;;;;;;16.30;13.22;;;17.20;99.90;;;;;;1976337;72;21057;-70
2021/07/22 00:37:38;;;;;;;21.15;13.53;;;17.20;99.90;;;;;;1982284;72;21163;-69
2021/07/22 00:40:06;;;;;;;18.32;13.62;;;17.30;99.90;;;;;;1965386;72;21081;-69
2021/07/22 00:43:00;;;;;;;18.82;14.20;;;17.20;99.90;;;;;;1984897;72;21118;-70
2021/07/22 00:45:28;;;;;;;19.40;13.35;;;17.20;99.90;;;;;;1979316;72;21033;-69
2021/07/22 00:47:58;;;;;;;18.32;13.70;;;17.20;99.90;;;;;;1965531;72;21076;-69
2021/07/22 00:50:26;;;;;;;19.85;13.68;;;17.20;99.90;;;;;;1979865;72;21082;-70
2021/07/22 00:52:53;;;;;;;19.70;14.35;;;17.20;99.90;;;;;;1979969;72;21059;-68
2021/07/22 00:55:27;;;;;;;22.90;14.40;;;17.20;99.90;;;;;;1973495;72;21061;-69
2021/07/22 00:57:54;;;;;;;22.15;13.65;;;17.20;99.90;;;;;;1957253;73;21175;-68
2021/07/22 01:00:23;;;;;;;16.75;13.48;;;17.20;99.90;;;;;;1989242;72;21059;-68
2021/07/22 01:02:50;;;;;;;18.82;14.25;;;17.10;99.90;;;;;;1970757;72;21688;-68
2021/07/22 01:05:18;;;;;;;18.35;14.03;;;17.10;99.90;;;;;;1993296;72;21519;-67
2021/07/22 01:07:46;;;;;;;21.95;13.83;;;17.10;99.90;;;;;;1967221;72;21144;-68
2021/07/22 01:10:13;;;;;;;18.23;13.68;;;17.10;99.90;;;;;;1987206;72;21142;-68
2021/07/22 01:12:41;;;;;;;18.80;14.18;;;17.00;99.90;;;;;;1966858;72;21108;-68
2021/07/22 01:15:08;;;;;;;24.63;15.30;;;17.00;99.90;;;;;;1971679;72;21083;-68
2021/07/22 01:17:50;;;;;;;22.10;15.25;;;17.00;99.90;;;;;;1969300;72;21093;-68
2021/07/22 01:20:19;;;;;;;23.40;14.90;;;17.00;99.90;;;;;;1982174;72;21076;-68
2021/07/22 01:22:48;;;;;;;21.85;15.13;;;17.10;99.90;;;;;;1957644;73;21106;-68
2021/07/22 01:25:17;;;;;;;19.73;13.62;;;17.10;99.90;;;;;;1957536;73;21164;-69
2021/07/22 01:27:44;;;;;;;19.92;14.30;;;17.00;99.90;;;;;;1979584;72;21520;-68
2021/07/22 01:30:13;;;;;;;22.55;14.33;;;17.00;99.90;;;;;;1969983;72;22124;-68
2021/07/22 01:32:42;;;;;;;21.77;14.65;;;16.90;99.90;;;;;;1967856;72;21118;-70
2021/07/22 01:35:10;;;;;;;20.57;14.20;;;16.90;99.90;;;;;;1986713;72;21085;-68
2021/07/22 01:37:42;;;;;;;21.35;13.65;;;16.90;99.90;;;;;;1969222;72;21177;-68
2021/07/22 01:40:11;;;;;;;19.25;14.45;;;17.00;99.90;;;;;;1962466;72;21084;-70
2021/07/22 01:42:39;;;;;;;19.60;13.78;;;16.90;99.90;;;;;;1977601;72;21117;-68
2021/07/22 01:45:07;;;;;;;21.17;14.33;;;16.90;99.90;;;;;;1972054;72;21073;-68
2021/07/22 01:47:37;;;;;;;23.00;14.95;;;16.90;99.90;;;;;;1957638;73;21058;-68
2021/07/22 01:50:05;;;;;;;18.52;14.23;;;16.90;99.90;;;;;;1983203;72;21063;-68
2021/07/22 01:52:33;;;;;;;19.12;13.95;;;16.90;99.90;;;;;;1983407;72;21195;-68
2021/07/22 01:55:00;;;;;;;21.48;14.00;;;17.00;99.90;;;;;;1993028;72;21089;-68
2021/07/22 01:57:28;;;;;;;18.02;13.60;;;16.90;99.90;;;;;;1993040;72;21022;-68
2021/07/22 02:00:01;;;;;;;22.67;14.90;;;16.90;99.90;;;;;;1969636;71;21069;-68
2021/07/22 02:02:24;;;;;;;18.98;13.60;;;16.90;99.90;;;;;;1954104;72;21129;-69
2021/07/22 02:04:52;;;;;;;18.82;13.78;;;16.90;99.90;;;;;;1980527;72;21016;-69
2021/07/22 02:07:19;;;;;;;18.82;14.25;;;16.90;99.90;;;;;;1977593;72;21053;-68
2021/07/22 02:09:47;;;;;;;19.75;13.93;;;17.00;99.90;;;;;;1972236;72;21064;-69
2021/07/22 02:12:14;;;;;;;20.65;14.58;;;16.90;99.90;;;;;;1987712;72;21414;-68
2021/07/22 02:14:42;;;;;;;24.85;14.05;;;17.00;99.90;;;;;;1967403;72;20982;-68
2021/07/22 02:17:12;;;;;;;18.98;13.70;;;17.00;99.90;;;;;;1975399;72;21167;-68
2021/07/22 02:19:39;;;;;;;17.87;13.68;;;17.10;99.90;;;;;;1978091;72;21086;-68
2021/07/22 02:22:06;;;;;;;18.25;13.65;;;17.10;99.90;;;;;;1983358;72;21680;-68
2021/07/22 02:24:34;;;;;;;17.95;13.43;;;17.10;99.90;;;;;;1983899;72;21017;-67
2021/07/22 02:27:01;;;;;;;19.55;13.68;;;17.10;99.90;;;;;;1958582;72;21066;-70
2021/07/22 02:29:29;;;;;;;18.62;13.75;;;17.10;99.90;;;;;;1979277;72;21543;-68
2021/07/22 02:31:56;;;;;;;16.82;13.45;;;17.10;99.90;;;;;;1990161;72;21097;-68
2021/07/22 02:34:24;;;;;;;16.80;13.43;;;17.10;99.90;;;;;;1962425;72;21078;-71
2021/07/22 02:36:51;;;;;;;18.42;12.70;;;17.10;99.90;;;;;;1980501;70;21497;-71
2021/07/22 02:39:19;;;;;;;18.12;13.38;;;17.10;99.90;;;;;;1957850;72;21081;-70
2021/07/22 02:41:46;;;;;;;21.05;13.58;;;17.10;99.90;;;;;;1966903;72;21010;-68
2021/07/22 02:44:14;;;;;;;22.52;14.73;;;17.10;99.90;;;;;;1987179;72;21567;-68
2021/07/22 02:46:41;;;;;;;19.70;13.78;;;17.10;99.90;;;;;;1968269;72;21131;-70
2021/07/22 02:49:09;;;;;;;20.30;14.23;;;17.00;99.90;;;;;;1979902;72;21439;-69
2021/07/22 02:51:36;;;;;;;19.42;14.58;;;17.00;99.90;;;;;;1993290;72;21573;-70
2021/07/22 02:54:04;;;;;;;19.42;13.90;;;17.00;99.90;;;;;;1963978;72;21195;-70
2021/07/22 02:56:31;;;;;;;21.40;13.10;;;17.00;99.90;;;;;;1983390;72;21135;-69
2021/07/22 02:58:59;;;;;;;18.85;13.80;;;17.00;99.90;;;;;;1972211;72;22087;-69
2021/07/22 03:01:26;;;;;;;21.60;13.70;;;17.10;99.90;;;;;;1971937;72;21103;-70
2021/07/22 03:03:54;;;;;;;22.90;14.40;;;17.00;99.90;;;;;;1985811;72;21096;-69
2021/07/22 03:06:21;;;;;;;19.62;14.45;;;17.00;99.90;;;;;;1963500;72;21610;-70
2021/07/22 03:08:49;;;;;;;22.75;15.18;;;17.10;99.90;;;;;;1981725;72;21168;-71
2021/07/22 03:11:16;;;;;;;18.25;13.30;;;17.10;99.90;;;;;;1970202;72;21396;-70
2021/07/22 03:13:44;;;;;;;25.52;16.32;;;17.00;99.90;;;;;;1966893;72;21595;-69
2021/07/22 03:16:11;;;;;;;17.12;14.13;;;17.10;99.90;;;;;;1990581;72;21058;-69
2021/07/22 03:18:39;;;;;;;19.90;14.00;;;17.10;99.90;;;;;;1982583;72;21059;-70
2021/07/22 03:21:06;;;;;;;20.85;13.62;;;17.10;99.90;;;;;;1990722;72;21018;-70
2021/07/22 03:23:34;;;;;;;20.20;15.05;;;17.10;99.90;;;;;;1969813;72;21650;-69
2021/07/22 03:26:01;;;;;;;22.13;14.53;;;17.00;99.90;;;;;;1986867;72;21077;-69
2021/07/22 03:28:29;;;;;;;21.12;14.70;;;17.00;99.90;;;;;;1964678;72;21431;-69
2021/07/22 03:30:56;;;;;;;21.62;15.10;;;17.00;99.90;;;;;;1976530;72;21573;-69
2021/07/22 03:33:24;;;;;;;20.75;14.55;;;17.00;99.90;;;;;;1959945;72;21121;-69
2021/07/22 03:35:51;;;;;;;21.48;14.80;;;17.10;99.90;;;;;;1984859;72;21073;-69
2021/07/22 03:38:19;;;;;;;19.90;15.08;;;17.10;99.90;;;;;;1963745;72;22238;-69
2021/07/22 03:40:46;;;;;;;18.85;14.60;;;17.10;99.90;;;;;;1981050;72;21064;-70
2021/07/22 03:43:14;;;;;;;19.17;14.25;;;17.00;99.90;;;;;;1976006;72;21097;-70
2021/07/22 03:45:41;;;;;;;22.07;14.28;;;17.10;99.90;;;;;;1993357;72;21582;-70
2021/07/22 03:48:09;;;;;;;19.90;14.07;;;17.10;99.90;;;;;;1969112;72;21076;-69
2021/07/22 03:50:36;;;;;;;18.55;13.90;;;17.10;99.90;;;;;;1983189;72;21069;-70
2021/07/22 03:53:04;;;;;;;18.90;13.50;;;17.10;99.90;;;;;;1977338;72;21118;-70
2021/07/22 03:55:31;;;;;;;23.55;14.10;;;17.00;99.90;;;;;;1980347;72;20991;-70
2021/07/22 03:57:59;;;;;;;21.42;13.98;;;17.00;99.90;;;;;;1965855;72;21051;-69
2021/07/22 04:00:26;;;;;;;21.48;14.38;;;17.00;99.90;;;;;;1960721;72;21145;-70
2021/07/22 04:03:07;;;;;;;22.87;14.83;;;16.90;99.90;;;;;;1946420;70;21235;-71
2021/07/22 04:05:34;;;;;;;23.55;16.05;;;16.90;99.90;;;;;;1905043;75;21075;-71
2021/07/22 04:08:02;;;;;;;25.30;15.68;;;17.00;99.90;;;;;;1919456;74;21092;-71
2021/07/22 04:10:30;;;;;;;29.90;16.65;;;17.00;99.90;;;;;;1914321;73;21100;-71
2021/07/22 04:13:01;;;;;;;21.55;15.30;;;17.10;99.90;;;;;;1901549;75;21579;-70
2021/07/22 04:15:30;;;;;;;20.97;15.15;;;17.00;99.90;;;;;;1881941;74;21181;-71
2021/07/22 04:17:59;;;;;;;23.67;15.25;;;17.00;99.90;;;;;;1881546;76;21095;-70
2021/07/22 04:20:28;;;;;;;27.70;15.60;;;17.00;99.90;;;;;;1835339;77;21203;-70
2021/07/22 04:23:00;;;;;;;21.35;15.48;;;17.10;99.90;;;;;;1881782;76;21067;-70
2021/07/22 04:25:27;;;;;;;;;;;17.10;99.90;;;;;;1883947;76;22117;-70
2021/07/22 04:27:55;;;;;;;22.20;15.30;;;17.10;99.90;;;;;;1876152;75;20418;-71
2021/07/22 04:30:22;;;;;;;26.35;17.05;;;17.10;99.90;;;;;;1881787;76;21060;-71
2021/07/22 04:32:51;;;;;;;26.50;17.48;;;17.10;99.90;;;;;;1880173;76;21137;-69
2021/07/22 04:35:19;;;;;;;25.12;16.05;;;17.20;99.90;;;;;;1882146;74;21143;-70
2021/07/22 04:37:46;;;;;;;22.67;15.32;;;17.10;99.90;;;;;;1881762;76;21094;-70
2021/07/22 04:40:14;;;;;;;21.37;14.35;;;17.20;99.90;;;;;;1881345;76;21095;-69
2021/07/22 04:42:41;;;;;;;21.27;14.85;;;17.20;99.90;;;;;;1873375;76;21152;-70
2021/07/22 04:45:10;;;;;;;17.48;13.70;;;17.20;99.90;;;;;;1865761;76;21155;-69
2021/07/22 04:47:37;;;;;;;19.90;12.98;;;17.20;99.90;;;;;;1882177;76;21071;-69
2021/07/22 04:50:05;;;;;;;17.82;12.65;;;17.10;99.90;;;;;;1882019;75;21518;-69
2021/07/22 04:52:33;;;;;;;17.57;11.55;;;17.10;99.90;;;;;;1881468;76;21108;-70
2021/07/22 04:55:00;;;;;;;20.30;11.60;;;17.20;99.90;;;;;;1875994;74;21081;-70
2021/07/22 04:57:28;;;;;;;16.87;11.63;;;17.20;99.90;;;;;;1877268;76;21164;-70
2021/07/22 04:59:55;;;;;;;24.45;12.33;;;17.30;99.90;;;;;;1882068;74;21172;-70
2021/07/22 05:02:23;;;;;;;15.50;11.83;;;17.30;99.90;;;;;;1867534;76;21111;-69
2021/07/22 05:04:50;;;;;;;19.20;11.57;;;17.30;99.90;;;;;;1868837;76;21185;-70
2021/07/22 05:07:18;;;;;;;18.25;12.33;;;17.30;99.90;;;;;;1861609;76;22108;-70
2021/07/22 05:09:45;;;;;;;21.87;11.22;;;17.40;99.90;;;;;;1863003;76;21103;-70
2021/07/22 05:12:13;;;;;;;19.62;11.93;;;17.40;99.90;;;;;;1857917;76;21114;-69
2021/07/22 05:14:40;;;;;;;18.12;11.53;;;17.40;99.90;;;;;;1864453;74;22104;-69
2021/07/22 05:17:08;;;;;;;17.37;11.85;;;17.40;99.90;;;;;;1879293;76;21161;-69
2021/07/22 05:19:35;;;;;;;18.48;12.23;;;17.40;99.90;;;;;;1861040;76;21089;-70
2021/07/22 05:22:03;;;;;;;19.40;11.95;;;17.40;99.90;;;;;;1869860;76;21072;-69
2021/07/22 05:24:31;;;;;;;22.48;12.15;;;17.40;99.90;;;;;;1877936;76;21388;-69
2021/07/22 05:26:58;;;;;;;20.10;12.98;;;17.40;99.90;;;;;;1881975;75;22264;-70
2021/07/22 05:29:26;;;;;;;24.30;12.45;;;17.40;99.90;;;;;;1879579;76;21064;-69
2021/07/22 05:31:53;;;;;;;23.95;13.05;;;17.50;99.90;;;;;;1872291;74;21072;-69
2021/07/22 05:34:21;;;;;;;20.25;12.28;;;17.50;99.90;;;;;;1873711;76;21884;-69
2021/07/22 05:36:48;;;;;;;22.93;13.75;;;17.50;99.90;;;;;;1871520;76;21017;-69
2021/07/22 05:39:16;;;;;;;22.87;12.50;;;17.50;99.90;;;;;;1872746;75;21072;-70
2021/07/22 05:41:43;;;;;;;20.88;13.50;;;17.60;99.90;;;;;;1861506;76;21549;-70
2021/07/22 05:44:11;;;;;;;20.02;11.22;;;17.70;99.90;;;;;;1859051;76;21162;-70
2021/07/22 05:46:38;;;;;;;18.37;11.55;;;17.70;99.90;;;;;;1871754;76;21055;-70
2021/07/22 05:49:06;;;;;;;19.10;10.58;;;17.80;99.90;;;;;;1873688;75;21640;-70
2021/07/22 05:51:34;;;;;;;20.80;10.40;;;17.90;99.90;;;;;;1882647;74;21100;-70
2021/07/22 05:54:02;;;;;;;16.85;9.65;;;17.80;99.90;;;;;;1866907;74;21139;-70
2021/07/22 05:56:29;;;;;;;14.35;9.18;;;17.90;99.90;;;;;;1882519;74;21683;-70
2021/07/22 05:58:57;;;;;;;16.45;9.30;;;17.90;99.90;;;;;;1872049;76;21587;-70
2021/07/22 06:01:24;;;;;;;18.02;8.20;;;18.00;99.90;;;;;;1862514;76;21442;-69
2021/07/22 06:03:52;;;;;;;15.85;8.98;;;18.00;99.90;;;;;;1866876;75;21127;-69
2021/07/22 06:06:19;;;;;;;18.10;8.93;;;17.90;99.90;;;;;;1882163;76;21607;-69
2021/07/22 06:08:47;;;;;;;15.35;9.18;;;18.00;99.90;;;;;;1875635;74;21091;-70
2021/07/22 06:11:14;;;;;;;13.95;9.55;;;18.00;99.90;;;;;;1863319;76;21078;-69
2021/07/22 06:13:42;;;;;;;18.73;9.20;;;18.00;99.90;;;;;;1868166;74;21116;-71
2021/07/22 06:16:13;;;;;;;17.20;8.70;;;18.00;99.90;;;;;;1886309;74;21160;-69
2021/07/22 06:18:41;;;;;;;12.03;7.97;;;18.00;99.90;;;;;;1875817;76;21098;-69
2021/07/22 06:21:14;;;;;;;13.03;7.58;;;18.00;99.90;;;;;;1865387;76;21091;-69
2021/07/22 06:23:43;;;;;;;12.75;6.92;;;18.10;99.90;;;;;;1879048;76;21128;-69
2021/07/22 06:26:10;;;;;;;13.45;7.08;;;18.20;99.90;;;;;;1862129;76;21515;-70
2021/07/22 06:28:38;;;;;;;10.72;6.17;;;18.30;99.90;;;;;;1868945;76;21044;-69
2021/07/22 06:31:06;;;;;;;8.73;6.08;;;18.30;99.90;;;;;;1868863;76;21079;-70
2021/07/22 06:33:34;;;;;;;10.03;5.40;;;18.30;99.90;;;;;;1876108;76;21076;-70
2021/07/22 06:36:01;;;;;;;9.15;4.78;;;18.30;99.90;;;;;;1883079;76;21040;-71
2021/07/22 06:38:33;;;;;;;11.93;5.28;;;18.30;99.90;;;;;;1855065;76;21020;-71
2021/07/22 06:41:00;;;;;;;7.90;4.92;;;18.40;99.90;;;;;;1876111;76;21494;-71
2021/07/22 06:43:30;;;;;;;14.13;5.20;;;18.30;99.90;;;;;;1876683;76;21075;-73
2021/07/22 06:45:57;;;;;;;6.67;5.10;;;18.30;99.90;;;;;;1871502;74;21763;-72
2021/07/22 06:48:26;;;;;;;5.62;4.28;;;18.40;99.90;;;;;;1868934;76;21067;-74
2021/07/22 06:50:54;;;;;;;8.53;4.72;;;18.30;99.90;;;;;;1880804;74;21189;-74
2021/07/22 06:53:21;;;;;;;10.75;4.87;;;18.30;99.90;;;;;;1866105;76;21064;-74
2021/07/22 06:55:49;;;;;;;8.43;5.10;;;18.40;99.90;;;;;;1864773;76;21115;-74
2021/07/22 06:58:16;;;;;;;9.05;4.92;;;18.40;99.90;;;;;;1860204;76;21166;-74
2021/07/22 07:00:44;;;;;;;9.73;5.10;;;18.40;99.90;;;;;;1874349;74;21083;-74
2021/07/22 07:03:11;;;;;;;8.15;5.17;;;18.50;99.90;;;;;;1863949;75;21615;-73
2021/07/22 07:05:39;;;;;;;10.78;4.40;;;18.50;99.90;;;;;;1860985;76;21111;-74
2021/07/22 07:08:06;;;;;;;5.90;4.67;;;18.50;99.90;;;;;;1879051;76;21067;-74
2021/07/22 07:10:34;;;;;;;7.00;4.45;;;18.50;99.90;;;;;;1884896;76;21035;-73
2021/07/22 07:13:02;;;;;;;9.03;4.62;;;18.60;99.90;;;;;;1881186;74;21716;-73
2021/07/22 07:15:29;;;;;;;8.93;4.62;;;18.60;99.90;;;;;;1862473;74;21600;-74
2021/07/22 07:17:59;;;;;;;9.65;5.20;;;18.60;99.90;;;;;;1874678;74;21374;-74
2021/07/22 07:20:26;;;;;;;9.05;5.00;;;18.60;99.90;;;;;;1869814;74;21103;-72
2021/07/22 07:22:56;;;;;;;7.10;4.75;;;18.60;99.90;;;;;;1874415;74;21111;-71
2021/07/22 07:25:23;;;;;;;9.10;5.00;;;18.70;99.90;;;;;;1876288;74;22143;-71
2021/07/22 07:27:51;;;;;;;8.25;4.78;;;18.70;99.90;;;;;;1877155;74;21064;-71
2021/07/22 07:30:19;;;;;;;9.78;4.80;;;18.70;99.90;;;;;;1879900;74;22537;-71
2021/07/22 07:32:48;;;;;;;7.12;4.28;;;18.70;99.90;;;;;;1880304;74;21169;-71
2021/07/22 07:35:15;;;;;;;8.78;4.53;;;18.70;99.90;;;;;;1875450;74;21095;-71
2021/07/22 07:37:43;;;;;;;8.13;4.55;;;18.80;99.90;;;;;;1880684;76;21063;-71
2021/07/22 07:40:12;;;;;;;7.55;4.47;;;18.90;99.90;;;;;;1872808;76;21141;-70
2021/07/22 07:42:39;;;;;;;11.30;4.95;;;19.10;99.90;;;;;;1884381;74;21050;-70
2021/07/22 07:45:08;;;;;;;5.90;4.22;;;19.00;99.90;;;;;;1880575;76;21103;-70
2021/07/22 07:47:35;;;;;;;6.62;4.40;;;19.00;99.90;;;;;;1876281;76;21576;-70
2021/07/22 07:50:03;;;;;;;6.42;4.72;;;19.00;99.90;;;;;;1830973;77;21095;-70
2021/07/22 07:52:35;;;;;;;7.60;4.65;;;19.00;99.90;;;;;;1860571;76;21453;-69
2021/07/22 07:55:02;;;;;;;10.72;4.53;;;19.10;99.90;;;;;;1873656;76;21108;-70
2021/07/22 07:57:29;;;;;;;7.28;4.78;;;19.10;99.90;;;;;;1869471;76;21545;-70
2021/07/22 07:59:57;;;;;;;9.35;4.87;;;19.10;99.90;;;;;;1876251;76;21147;-70
2021/07/22 08:02:24;;;;;;;6.40;4.53;;;19.10;99.90;;;;;;1863871;76;21493;-70
2021/07/22 08:04:54;;;;;;;9.43;5.08;;;19.10;99.90;;;;;;1875178;74;21099;-70
2021/07/22 08:07:21;;;;;;;9.98;4.87;;;19.10;99.90;;;;;;1862860;76;21079;-71
2021/07/22 08:09:49;;;;;;;9.15;5.00;;;19.20;99.90;;;;;;1874808;74;21055;-71
2021/07/22 08:12:17;;;;;;;8.15;4.85;;;19.20;99.90;;;;;;1865752;76;21119;-69
2021/07/22 08:14:44;;;;;;;10.03;4.35;;;19.30;99.90;;;;;;1859371;76;21198;-69
2021/07/22 08:17:17;;;;;;;6.72;5.15;;;19.40;99.90;;;;;;1864433;76;21083;-71
2021/07/22 08:19:44;;;;;;;7.85;5.33;;;19.30;99.90;;;;;;1875030;76;21176;-71
2021/07/22 08:22:13;;;;;;;13.20;5.50;;;19.40;99.90;;;;;;1875998;76;21186;-71
2021/07/22 08:24:41;;;;;;;11.73;5.33;;;19.40;99.90;;;;;;1857656;76;21150;-70
2021/07/22 08:27:08;;;;;;;9.48;5.15;;;19.30;99.90;;;;;;1877358;76;21103;-71
2021/07/22 08:29:40;;;;;;;6.22;4.62;;;19.30;99.90;;;;;;1875440;74;21133;-71
2021/07/22 08:32:08;;;;;;;7.53;4.70;;;19.40;99.90;;;;;;1870197;74;21105;-72
2021/07/22 08:34:35;;;;;;;7.10;4.90;;;19.50;99.90;;;;;;1870857;76;21083;-73
2021/07/22 08:37:09;;;;;;;8.23;5.17;;;19.60;99.90;;;;;;1868733;76;21095;-70
2021/07/22 08:39:40;;;;;;;11.83;5.05;;;19.50;99.90;;;;;;1868153;74;21154;-70
2021/07/22 08:42:09;;;;;;;12.53;5.10;;;19.60;99.90;;;;;;1827093;77;21701;-71
2021/07/22 08:44:38;;;;;;;6.65;4.45;;;19.70;99.90;;;;;;1870657;76;21143;-70
2021/07/22 08:47:08;;;;;;;9.60;5.20;;;19.80;99.90;;;;;;1870336;74;21441;-71
2021/07/22 08:49:37;;;;;;;10.28;5.05;;;19.90;99.90;;;;;;1872122;74;21224;-71
2021/07/22 08:52:11;;;;;;;8.35;5.08;;;20.00;99.90;;;;;;1864608;76;21103;-71
2021/07/22 08:54:40;;;;;;;8.33;5.10;;;20.00;99.90;;;;;;1860502;76;21609;-71
2021/07/22 08:57:12;;;;;;;10.10;5.25;;;19.90;99.90;;;;;;1863290;76;21107;-71
2021/07/22 08:59:40;;;;;;;7.40;4.90;;;19.80;99.90;;;;;;1871683;76;21165;-71
2021/07/22 09:02:07;;;;;;;7.25;4.80;;;19.80;99.90;;;;;;1868701;74;21182;-70
2021/07/22 09:04:50;;;;;;;7.92;5.25;;;19.90;99.90;;;;;;1858298;76;21193;-72
2021/07/22 09:07:19;;;;;;;9.03;5.45;;;20.10;99.90;;;;;;1858118;76;21079;-71
2021/07/22 09:10:08;;;;;;;8.35;5.78;;;20.20;99.90;;;;;;1881700;76;21035;-70
2021/07/22 09:12:36;;;;;;;8.10;5.47;;;20.30;99.90;;;;;;1879465;74;21044;-71
2021/07/22 09:15:05;;;;;;;7.22;4.92;;;20.40;99.90;;;;;;1855183;75;21599;-71
2021/07/22 09:17:33;;;;;;;6.20;4.90;;;20.50;99.90;;;;;;1871771;76;21013;-71
2021/07/22 09:20:00;;;;;;;8.58;4.65;;;20.50;99.90;;;;;;1874696;76;21091;-71
2021/07/22 09:22:35;;;;;;;9.98;5.70;;;20.50;99.90;;;;;;1882321;76;21020;-71
2021/07/22 09:25:04;;;;;;;8.55;5.12;;;20.40;99.90;;;;;;1866420;76;21028;-71
2021/07/22 09:27:45;;;;;;;16.50;6.17;;;20.40;99.90;;;;;;1851822;75;21020;-71
2021/07/22 09:30:15;;;;;;;17.12;6.00;;;20.40;99.90;;;;;;1871464;74;21612;-71
2021/07/22 09:32:49;;;;;;;11.63;5.33;;;20.30;99.90;;;;;;1867043;74;22185;-70
2021/07/22 09:35:22;;;;;;;8.45;5.37;;;20.40;99.90;;;;;;1883665;74;21618;-71
2021/07/22 09:37:52;;;;;;;11.30;5.30;;;20.40;99.90;;;;;;1881222;76;21165;-78
2021/07/22 09:40:30;;;;;;;10.13;5.45;;;20.40;99.90;;;;;;1865476;76;21087;-71
2021/07/22 09:42:58;;;;;;;8.40;5.25;;;20.30;99.90;;;;;;1865166;76;21198;-72
2021/07/22 09:45:28;;;;;;;8.90;5.35;;;20.20;99.90;;;;;;1869824;76;21181;-72
2021/07/22 09:47:56;;;;;;;9.73;5.40;;;20.20;99.90;;;;;;1872506;74;21530;-71
2021/07/22 09:50:25;;;;;;;9.70;5.20;;;20.10;99.90;;;;;;1882068;76;21130;-71
2021/07/22 09:53:11;;;;;;;12.98;4.80;;;20.10;99.90;;;;;;1881971;74;21186;-72
2021/07/22 09:55:40;;;;;;;9.45;5.30;;;20.00;99.90;;;;;;1849748;76;21609;-72
2021/07/22 09:58:11;;;;;;;8.48;4.80;;;19.90;99.90;;;;;;1859927;76;21293;-71
2021/07/22 10:00:43;;;;;;;8.78;4.72;;;19.90;99.90;;;;;;1878686;74;21040;-71
2021/07/22 10:03:16;;;;;;;10.38;4.87;;;20.00;99.90;;;;;;1886539;71;21135;-77
2021/07/22 10:05:51;;;;;;;8.55;4.22;;;19.90;99.90;;;;;;1897015;74;21564;-74
2021/07/22 10:08:20;;;;;;;7.87;4.50;;;20.00;99.90;;;;;;1890438;74;21082;-75
2021/07/22 10:10:56;;;;;;;10.53;4.90;;;20.10;99.90;;;;;;1889125;74;21448;-75
2021/07/22 10:13:39;;;;;;;13.05;4.85;;;20.30;99.90;;;;;;1926389;73;21201;-75
2021/07/22 10:16:08;;;;;;;14.25;4.80;;;20.60;99.90;;;;;;1906947;73;21123;-75
2021/07/22 10:18:39;;;;;;;7.67;3.98;;;21.00;99.90;;;;;;1907036;74;21145;-74
2021/07/22 10:21:07;;;;;;;6.90;4.47;;;21.10;99.90;;;;;;1930727;73;21053;-75
2021/07/22 10:23:34;;;;;;;8.10;4.62;;;21.40;99.90;;;;;;1926057;73;21130;-74
2021/07/22 10:26:02;;;;;;;7.28;4.65;;;21.60;99.90;;;;;;1882932;75;21153;-76
2021/07/22 10:28:30;;;;;;;7.65;4.35;;;21.70;99.90;;;;;;1897871;74;22004;-77
2021/07/22 10:30:58;;;;;;;5.90;4.00;;;21.70;99.90;;;;;;1880512;75;21149;-77
2021/07/22 10:33:27;;;;;;;7.12;4.40;;;21.70;99.90;;;;;;1887957;75;22239;-77
2021/07/22 10:35:56;;;;;;;12.20;4.70;;;21.60;99.90;;;;;;1887268;74;21176;-77
2021/07/22 10:38:24;;;;;;;7.80;4.03;;;21.50;99.90;;;;;;1882138;74;21090;-78
2021/07/22 10:40:59;;;;;;;6.45;4.45;;;21.30;99.90;;;;;;1890493;75;21128;-77
2021/07/22 10:43:41;;;;;;;6.78;4.10;;;21.30;99.90;;;;;;1857133;76;21113;-77
2021/07/22 10:46:14;;;;;;;5.45;4.20;;;21.10;99.90;;;;;;1871575;75;21171;-76
2021/07/22 10:48:44;;;;;;;11.20;4.95;;;21.10;99.90;;;;;;1877339;74;21140;-76
2021/07/22 10:51:15;;;;;;;8.05;4.20;;;21.00;99.90;;;;;;1854823;76;21516;-76
2021/07/22 10:53:54;;;;;;;10.88;4.92;;;20.90;99.90;;;;;;1882070;75;21076;-76
2021/07/22 10:56:27;;;;;;;8.75;4.05;;;20.90;99.90;;;;;;1857730;75;21205;-75
2021/07/22 10:58:56;;;;;;;8.33;4.22;;;20.90;99.90;;;;;;1916595;75;21038;-74
2021/07/22 11:01:45;;;;;;;11.15;4.10;;;20.80;99.90;;;;;;1897483;74;21045;-76
2021/07/22 11:04:25;;;;;;;9.80;4.35;;;20.80;99.90;;;;;;1891422;74;21164;-75
2021/07/22 11:07:04;;;;;;;9.85;4.50;;;20.80;99.90;;;;;;1893584;74;21018;-74
2021/07/22 11:09:50;;;;;;;12.18;4.55;;;21.00;99.90;;;;;;1875701;74;21041;-74
2021/07/22 11:12:47;;;;;;;38.75;7.08;;;21.00;99.90;;;;;;1878724;76;21037;-74
2021/07/22 11:15:20;;;;;;;16.45;5.12;;;21.00;99.90;;;;;;1887672;74;21146;-75
2021/07/22 11:17:48;;;;;;;9.98;4.72;;;21.10;99.90;;;;;;1881101;75;21091;-75
2021/07/22 11:20:24;;;;;;;34.18;6.30;;;21.00;99.90;;;;;;1891335;74;21533;-74
2021/07/22 11:22:52;;;;;;;21.75;5.80;;;21.00;99.90;;;;;;1888170;76;21116;-75
2021/07/22 11:25:20;;;;;;;7.95;3.90;;;21.00;99.90;;;;;;1891912;74;21081;-74
2021/07/22 11:27:50;;;;;;;11.03;4.50;;;20.90;99.90;;;;;;1885239;75;21093;-75
2021/07/22 11:30:19;;;;;;;9.70;4.35;;;20.90;99.90;;;;;;1892540;74;21088;-74
2021/07/22 11:32:47;;;;;;;7.25;4.35;;;20.80;99.90;;;;;;1895154;74;21082;-74
2021/07/22 11:35:14;;;;;;;7.85;3.92;;;20.80;99.90;;;;;;1893394;74;21112;-74
2021/07/22 11:37:43;;;;;;;8.05;4.42;;;20.90;99.90;;;;;;1891103;75;21145;-75
2021/07/22 11:40:12;;;;;;;6.03;4.20;;;21.00;99.90;;;;;;1920919;74;21093;-74
2021/07/22 11:42:50;;;;;;;7.83;4.15;;;21.00;99.90;;;;;;1899428;74;21053;-75
2021/07/22 11:45:18;;;;;;;6.35;3.98;;;21.10;99.90;;;;;;1886731;76;21180;-75
2021/07/22 11:47:45;;;;;;;6.25;3.92;;;21.10;99.90;;;;;;1894435;74;21159;-75
2021/07/22 11:50:13;;;;;;;8.93;3.90;;;21.20;99.90;;;;;;1915443;74;21101;-74
2021/07/22 11:52:40;;;;;;;9.85;4.08;;;21.20;99.90;;;;;;1906636;74;21054;-74
2021/07/22 11:55:09;;;;;;;5.85;3.58;;;21.50;99.90;;;;;;1884300;76;21078;-74
2021/07/22 11:57:41;;;;;;;7.53;3.92;;;21.50;99.90;;;;;;1887759;75;21097;-76
2021/07/22 12:00:20;;;;;;;7.60;3.77;;;21.50;99.90;;;;;;1892825;74;21089;-77
2021/07/22 12:02:54;;;;;;;6.20;3.62;;;21.70;99.90;;;;;;1902689;74;21649;-77
2021/07/22 12:05:26;;;;;;;7.87;3.77;;;22.00;99.90;;;;;;1855405;75;21162;-76
2021/07/22 12:07:56;;;;;;;8.10;4.33;;;22.20;99.90;;;;;;1880606;75;21169;-77
2021/07/22 12:10:27;;;;;;;9.43;4.50;;;22.30;99.90;;;;;;1891846;74;21092;-76
2021/07/22 12:13:08;;;;;;;9.38;4.05;;;22.40;99.90;;;;;;1894513;75;21393;-75
2021/07/22 12:15:32;;;;;;;7.87;4.03;;;22.60;99.90;;;;;;1885814;74;21040;-76
2021/07/22 12:17:59;;;;;;;8.03;4.50;;;22.70;99.90;;;;;;1889796;75;21687;-76
2021/07/22 12:20:27;;;;;;;8.48;3.98;;;22.70;99.90;;;;;;1912557;74;21017;-76
2021/07/22 12:22:54;;;;;;;10.82;3.83;;;22.80;99.90;;;;;;1895796;74;21082;-77
2021/07/22 12:25:26;;;;;;;9.33;4.25;;;22.80;99.90;;;;;;1886898;74;21679;-75
2021/07/22 12:27:53;;;;;;;7.47;4.00;;;22.60;99.90;;;;;;1884286;75;21115;-74
2021/07/22 12:30:26;;;;;;;6.80;3.75;;;22.50;99.90;;;;;;1890454;74;21068;-76
2021/07/22 12:32:59;;;;;;;8.28;3.58;;;22.30;99.90;;;;;;1894873;74;21111;-76
2021/07/22 12:35:41;;;;;;;10.28;3.50;;;22.20;99.90;;;;;;1903683;74;21120;-75
2021/07/22 12:38:24;;;;;;;5.87;3.87;;;22.20;99.90;;;;;;1900472;74;21095;-75
2021/07/22 12:41:05;;;;;;;10.88;3.72;;;22.40;99.90;;;;;;1896926;75;21577;-75
2021/07/22 12:43:45;;;;;;;7.12;3.58;;;22.50;99.90;;;;;;1855790;75;21117;-74
2021/07/22 12:46:21;;;;;;;9.98;3.85;;;22.60;99.90;;;;;;1858099;75;21202;-74